Time;durP1;ratioP1;P1;durP2;ratioP2;P2;SDS_P1;SDS_P2;PMS_P1;PMS_P2;Temp;Humidity;BMP_temperature;BMP_pressure;BME280_temperature;BME280_humidity;BME280_pressure;Samples;Min_cycle;Max_cycle;Signal;HPM_P1;HPM_P2
2022/11/05 00:09:37;;;;;;;;;;;10.40;99.90;;;;;;5059428;28;19916;-82
2022/11/05 00:17:41;;;;;;;;;;;10.10;99.90;;;;;;5059240;28;19919;-82
2022/11/05 00:20:07;;;;;;;;;;;10.00;99.90;;;;;;5040942;28;20346;-81
2022/11/05 00:25:18;;;;;;;;;;;9.90;99.90;;;;;;5059455;28;20283;-81
2022/11/05 00:27:50;;;;;;;;;;;9.90;99.90;;;;;;5058709;28;20012;-81
2022/11/05 00:30:21;;;;;;;;;;;9.80;99.90;;;;;;5041648;28;20034;-81
2022/11/05 00:32:47;;;;;;;;;;;9.70;99.90;;;;;;5042267;28;19909;-81
2022/11/05 00:35:13;;;;;;;;;;;9.50;99.90;;;;;;5059899;28;19909;-81
2022/11/05 00:37:39;;;;;;;;;;;9.50;99.90;;;;;;5040990;28;19916;-81
2022/11/05 00:40:05;;;;;;;;;;;9.40;99.90;;;;;;5043049;28;19920;-81
2022/11/05 00:45:15;;;;;;;;;;;9.30;99.90;;;;;;5059400;28;19920;-80
2022/11/05 00:50:25;;;;;;;;;;;9.20;99.90;;;;;;5059802;28;19915;-81
2022/11/05 00:52:54;;;;;;;;;;;9.10;99.90;;;;;;5040106;28;19908;-82
2022/11/05 00:55:20;;;;;;;;;;;9.10;99.90;;;;;;5057145;28;19909;-81
2022/11/05 00:57:46;;;;;;;;;;;9.10;99.90;;;;;;5040328;28;20359;-81
2022/11/05 01:00:11;;;;;;;;;;;9.00;99.90;;;;;;5059525;28;19916;-81
2022/11/05 01:02:37;;;;;;;;;;;9.00;99.90;;;;;;5043662;28;20406;-81
2022/11/05 01:05:02;;;;;;;;;;;9.00;99.90;;;;;;5042763;28;19916;-81
2022/11/05 01:07:28;;;;;;;;;;;9.10;99.90;;;;;;5060051;28;19939;-81
2022/11/05 01:09:53;;;;;;;;;;;9.10;99.90;;;;;;5042120;28;19909;-81
2022/11/05 01:12:19;;;;;;;;;;;9.00;99.90;;;;;;5061124;28;20016;-81
2022/11/05 01:14:44;;;;;;;;;;;9.00;99.90;;;;;;5041790;28;19908;-81
2022/11/05 01:17:09;;;;;;;;;;;8.90;99.90;;;;;;5041804;28;20007;-81
2022/11/05 01:19:35;;;;;;;;;;;9.00;99.90;;;;;;5059778;28;19913;-81
2022/11/05 01:22:00;;;;;;;;;;;8.90;99.90;;;;;;5043076;28;19917;-81
2022/11/05 01:24:26;;;;;;;;;;;8.90;99.90;;;;;;5059466;28;19909;-81
2022/11/05 01:26:51;;;;;;;;;;;8.90;99.90;;;;;;5041806;28;19909;-81
2022/11/05 01:29:17;;;;;;;;;;;9.00;99.90;;;;;;5059624;28;20319;-82
2022/11/05 01:31:42;;;;;;;;;;;8.90;99.90;;;;;;5041939;28;20004;-82
2022/11/05 01:34:08;;;;;;;;;;;8.90;99.90;;;;;;5060071;28;20328;-82
2022/11/05 01:36:33;;;;;;;;;;;8.90;99.90;;;;;;5042177;28;19909;-82
2022/11/05 01:38:59;;;;;;;;;;;8.90;99.90;;;;;;5042584;28;19959;-82
2022/11/05 01:41:24;;;;;;;;;;;8.80;99.90;;;;;;5042736;28;19931;-82
2022/11/05 01:43:51;;;;;;;;;;;8.80;99.90;;;;;;5061243;28;19908;-82
2022/11/05 01:46:20;;;;;;;;;;;8.80;99.90;;;;;;5041288;28;19916;-80
2022/11/05 01:48:48;;;;;;;;;;;8.80;99.90;;;;;;5042316;28;19909;-81
2022/11/05 01:51:16;;;;;;;;;;;8.80;99.90;;;;;;5041086;28;19912;-81
2022/11/05 01:53:44;;;;;;;;;;;8.80;99.90;;;;;;5041119;28;20015;-81
2022/11/05 01:56:13;;;;;;;;;;;8.80;99.90;;;;;;5041025;28;20319;-81
2022/11/05 01:58:44;;;;;;;;;;;8.80;99.90;;;;;;5041195;28;19952;-81
2022/11/05 02:01:10;;;;;;;;;;;8.70;99.90;;;;;;5059646;28;19909;-81
2022/11/05 02:03:35;;;;;;;;;;;8.70;99.90;;;;;;5041851;28;20391;-81
2022/11/05 02:06:01;;;;;;;;;;;8.70;99.90;;;;;;5040787;28;19917;-81
2022/11/05 02:08:36;;;;;;;;;;;8.60;99.90;;;;;;5040909;28;19916;-81
2022/11/05 02:11:01;;;;;;;;;;;8.60;99.90;;;;;;5041086;28;19913;-81
2022/11/05 02:13:27;;;;;;;;;;;8.60;99.90;;;;;;5041732;28;19940;-82
2022/11/05 02:15:58;;;;;;;;;;;8.60;99.90;;;;;;5042969;28;19916;-82
2022/11/05 02:18:37;;;;;;;;;;;8.60;99.90;;;;;;5040898;28;19909;-82
2022/11/05 02:21:03;;;;;;;;;;;8.70;99.90;;;;;;5041149;28;19988;-82
2022/11/05 02:23:28;;;;;;;;;;;8.80;99.90;;;;;;5059141;28;20433;-82
2022/11/05 02:25:54;;;;;;;;;;;8.80;99.90;;;;;;5058455;28;20330;-81
2022/11/05 02:28:28;;;;;;;;;;;8.90;99.90;;;;;;5058569;28;19919;-81
2022/11/05 02:31:03;;;;;;;;;;;8.90;99.90;;;;;;5058031;28;19916;-82
2022/11/05 02:33:31;;;;;;;;;;;9.00;99.90;;;;;;5040628;28;19908;-82
2022/11/05 02:36:15;;;;;;;;;;;9.10;99.90;;;;;;5057901;28;19930;-82
2022/11/05 02:38:52;;;;;;;;;;;9.20;99.90;;;;;;5040833;28;19913;-82
2022/11/05 02:41:22;;;;;;;;;;;9.30;99.90;;;;;;5061505;28;20360;-82
2022/11/05 02:43:51;;;;;;;;;;;9.20;99.90;;;;;;5041086;28;19935;-81
2022/11/05 02:46:27;;;;;;;;;;;9.20;99.90;;;;;;5039053;28;19909;-81
2022/11/05 02:48:56;;;;;;;;;;;9.20;99.90;;;;;;5038642;28;19909;-81
2022/11/05 02:51:25;;;;;;;;;;;9.20;99.90;;;;;;5038522;28;19919;-80
2022/11/05 02:53:55;;;;;;;;;;;9.30;99.90;;;;;;5038467;28;20113;-81
2022/11/05 02:56:22;;;;;;;;;;;9.40;99.90;;;;;;5037013;28;19912;-81
2022/11/05 02:58:48;;;;;;;;;;;9.40;99.90;;;;;;5037944;28;19935;-81
2022/11/05 03:01:13;;;;;;;;;;;9.50;99.90;;;;;;5055936;28;19913;-81
2022/11/05 03:03:39;;;;;;;;;;;9.50;99.90;;;;;;5055645;28;19909;-81
2022/11/05 03:06:16;;;;;;;;;;;9.50;99.90;;;;;;5036823;28;19924;-81
2022/11/05 03:09:00;;;;;;;;;;;9.50;99.90;;;;;;5056355;28;19915;-82
2022/11/05 03:11:27;;;;;;;;;;;9.50;99.90;;;;;;5038466;28;19917;-81
2022/11/05 03:14:05;;;;;;;;;;;9.40;99.90;;;;;;5037135;28;20435;-83
2022/11/05 03:16:37;;;;;;;;;;;9.40;99.90;;;;;;5037694;28;20328;-81
2022/11/05 03:19:16;;;;;;;;;;;9.30;99.90;;;;;;5037296;28;19913;-81
2022/11/05 03:21:51;;;;;;;;;;;9.20;99.90;;;;;;5055765;28;20388;-81
2022/11/05 03:24:19;;;;;;;;;;;9.10;99.90;;;;;;5038154;28;20415;-81
2022/11/05 03:26:55;;;;;;;;;;;9.00;99.90;;;;;;5037464;28;20445;-81
2022/11/05 03:29:25;;;;;;;;;;;8.90;99.90;;;;;;5038203;28;19909;-81
2022/11/05 03:31:53;;;;;;;;;;;8.80;99.90;;;;;;5039094;28;19912;-81
2022/11/05 03:34:20;;;;;;;;;;;8.70;99.90;;;;;;5055836;28;19909;-81
2022/11/05 03:36:48;;;;;;;;;;;8.60;99.90;;;;;;5055372;28;19931;-81
2022/11/05 03:39:28;;;;;;;;;;;8.50;99.90;;;;;;5037491;28;20330;-81
2022/11/05 03:41:55;;;;;;;;;;;8.50;99.90;;;;;;5037593;28;19915;-82
2022/11/05 03:44:23;;;;;;;;;;;8.40;99.90;;;;;;5037779;28;20011;-81
2022/11/05 03:46:50;;;;;;;;;;;8.40;99.90;;;;;;5038625;28;19944;-81
2022/11/05 03:49:20;;;;;;;;;;;8.30;99.90;;;;;;5040270;28;19962;-81
2022/11/05 03:51:52;;;;;;;;;;;8.30;99.90;;;;;;5040301;28;19951;-81
2022/11/05 03:54:18;;;;;;;;;;;8.20;99.90;;;;;;5040217;28;19947;-80
2022/11/05 03:56:46;;;;;;;;;;;8.20;99.90;;;;;;5041236;28;20335;-81
2022/11/05 03:59:12;;;;;;;;;;;8.20;99.90;;;;;;5040978;28;19913;-81
2022/11/05 04:01:38;;;;;;;;;;;8.20;99.90;;;;;;5059237;28;20375;-80
2022/11/05 04:04:04;;;;;;;;;;;8.20;99.90;;;;;;5041575;28;20415;-81
2022/11/05 04:14:42;;;;;;;;;;;8.10;99.90;;;;;;5061282;28;20471;-81
2022/11/05 04:17:08;;;;;;;;;;;8.10;99.90;;;;;;5043581;28;19936;-81
2022/11/05 04:25:14;;;;;;;;;;;8.10;99.90;;;;;;5062654;28;19950;-82
2022/11/05 04:27:39;;;;;;;;;;;8.00;99.90;;;;;;5062846;28;20284;-82
2022/11/05 04:30:17;;;;;;;;;;;8.00;99.90;;;;;;5044048;28;19908;-81
2022/11/05 04:32:58;;;;;;;;;;;8.10;99.90;;;;;;5042728;28;19908;-81
2022/11/05 04:35:24;;;;;;;;;;;8.10;99.90;;;;;;5060996;28;19909;-82
2022/11/05 04:37:49;;;;;;;;;;;8.10;99.90;;;;;;5043155;28;19909;-81
2022/11/05 04:40:14;;;;;;;;;;;8.10;99.90;;;;;;5061461;28;19913;-81
2022/11/05 04:42:40;;;;;;;;;;;8.20;99.90;;;;;;5059804;28;19975;-81
2022/11/05 04:45:05;;;;;;;;;;;8.20;99.90;;;;;;5042957;28;19909;-81
2022/11/05 04:47:31;;;;;;;;;;;8.30;99.90;;;;;;5042735;28;19909;-81
2022/11/05 04:49:56;;;;;;;;;;;8.30;99.90;;;;;;5061396;28;19909;-81
2022/11/05 04:52:22;;;;;;;;;;;8.30;99.90;;;;;;5042808;28;19979;-81
2022/11/05 04:54:47;;;;;;;;;;;8.40;99.90;;;;;;5060434;28;19958;-81
2022/11/05 04:57:13;;;;;;;;;;;8.40;99.90;;;;;;5059803;28;19956;-81
2022/11/05 04:59:38;;;;;;;;;;;8.40;99.90;;;;;;5059148;28;19914;-81
2022/11/05 05:02:04;;;;;;;;;;;8.40;99.90;;;;;;5059798;28;19908;-81
2022/11/05 05:04:29;;;;;;;;;;;8.30;99.90;;;;;;5042356;28;19909;-82
2022/11/05 05:06:55;;;;;;;;;;;8.30;99.90;;;;;;5058722;28;19924;-81
2022/11/05 05:09:20;;;;;;;;;;;8.20;99.90;;;;;;5057270;28;19912;-81
2022/11/05 05:11:46;;;;;;;;;;;8.20;99.90;;;;;;5057265;28;20257;-80
2022/11/05 05:14:11;;;;;;;;;;;8.10;99.90;;;;;;5057752;28;20001;-81
2022/11/05 05:16:36;;;;;;;;;;;8.00;99.90;;;;;;5039319;28;19909;-81
2022/11/05 05:19:02;;;;;;;;;;;8.00;99.90;;;;;;5057302;28;19913;-81
2022/11/05 05:21:41;;;;;;;;;;;7.90;99.90;;;;;;5038925;28;19909;-81
2022/11/05 05:24:10;;;;;;;;;;;7.90;99.90;;;;;;5039503;28;19909;-81
2022/11/05 05:26:40;;;;;;;;;;;7.80;99.90;;;;;;5056908;28;19908;-80
2022/11/05 05:29:06;;;;;;;;;;;7.80;99.90;;;;;;5056357;28;19916;-80
2022/11/05 05:31:31;;;;;;;;;;;7.80;99.90;;;;;;5038823;28;19909;-81
2022/11/05 05:33:57;;;;;;;;;;;7.70;99.90;;;;;;5056868;28;20322;-81
2022/11/05 05:36:23;;;;;;;;;;;7.70;99.90;;;;;;5038452;28;19931;-80
2022/11/05 05:38:48;;;;;;;;;;;7.70;99.90;;;;;;5056922;28;19909;-81
2022/11/05 05:41:14;;;;;;;;;;;7.60;99.90;;;;;;5039093;28;20555;-81
2022/11/05 05:43:40;;;;;;;;;;;7.70;99.90;;;;;;5057011;28;19955;-80
2022/11/05 05:46:06;;;;;;;;;;;7.60;99.90;;;;;;5038786;28;19913;-81
2022/11/05 05:48:32;;;;;;;;;;;7.70;99.90;;;;;;5038962;28;20364;-80
2022/11/05 05:51:02;;;;;;;;;;;7.60;99.90;;;;;;5038306;28;19962;-81
2022/11/05 05:53:27;;;;;;;;;;;7.70;99.90;;;;;;5038224;28;20435;-81
2022/11/05 05:55:53;;;;;;;;;;;7.70;99.90;;;;;;5038802;28;19985;-81
2022/11/05 05:58:19;;;;;;;;;;;7.70;99.90;;;;;;5056332;28;19909;-81
2022/11/05 06:00:45;;;;;;;;;;;7.70;99.90;;;;;;5038335;28;19967;-81
2022/11/05 06:03:10;;;;;;;;;;;7.70;99.90;;;;;;5038389;28;19913;-81
2022/11/05 06:05:35;;;;;;;;;;;7.70;99.90;;;;;;5037858;28;20059;-81
2022/11/05 06:08:01;;;;;;;;;;;7.70;99.90;;;;;;5055212;22;19925;-84
2022/11/05 06:10:26;;;;;;;;;;;7.70;99.90;;;;;;5041648;28;19909;-85
2022/11/05 06:12:52;;;;;;;;;;;7.60;99.90;;;;;;5042138;28;19972;-84
2022/11/05 06:15:17;;;;;;;;;;;7.60;99.90;;;;;;5059301;28;19930;-83
2022/11/05 06:17:43;;;;;;;;;;;7.60;99.90;;;;;;5058613;28;19924;-84
2022/11/05 06:20:09;;;;;;;;;;;7.50;99.90;;;;;;5058936;28;19923;-83
2022/11/05 06:22:34;;;;;;;;;;;7.50;99.90;;;;;;5059734;28;20265;-84
2022/11/05 06:25:00;;;;;;;;;;;7.50;99.90;;;;;;5040745;28;19909;-84
2022/11/05 06:27:27;;;;;;;;;;;7.50;99.90;;;;;;5058072;28;19909;-84
2022/11/05 06:29:52;;;;;;;;;;;7.50;99.90;;;;;;5039778;28;19913;-84
2022/11/05 06:32:17;;;;;;;;;;;7.40;99.90;;;;;;5040964;28;19909;-84
2022/11/05 06:34:43;;;;;;;;;;;7.40;99.90;;;;;;5059712;28;19952;-83
2022/11/05 06:37:08;;;;;;;;;;;7.40;99.90;;;;;;5040363;28;19913;-83
2022/11/05 06:39:34;;;;;;;;;;;7.40;99.90;;;;;;5040302;28;19936;-84
2022/11/05 06:41:59;;;;;;;;;;;7.40;99.90;;;;;;5057504;28;19913;-84
2022/11/05 06:44:25;;;;;;;;;;;7.40;99.90;;;;;;5057202;28;19908;-82
2022/11/05 06:46:50;;;;;;;;;;;7.40;99.90;;;;;;5038268;28;20373;-82
2022/11/05 06:49:16;;;;;;;;;;;7.40;99.90;;;;;;5055935;28;19970;-82
2022/11/05 06:51:41;;;;;;;;;;;7.40;99.90;;;;;;5037095;28;19931;-83
2022/11/05 06:54:07;;;;;;;;;;;7.30;99.90;;;;;;5056131;28;19909;-83
2022/11/05 06:56:32;;;;;;;;;;;7.30;99.90;;;;;;5039767;28;20362;-84
2022/11/05 06:58:58;;;;;;;;;;;7.30;99.90;;;;;;5057662;28;19923;-83
2022/11/05 07:01:23;;;;;;;;;;;7.40;99.90;;;;;;5056973;28;19916;-83
2022/11/05 07:03:49;;;;;;;;;;;7.40;99.90;;;;;;5038742;28;20003;-83
2022/11/05 07:06:14;;;;;;;;;;;7.40;99.90;;;;;;5038346;28;19909;-84
2022/11/05 07:08:40;;;;;;;;;;;7.40;99.90;;;;;;5038958;28;20380;-84
2022/11/05 07:11:05;;;;;;;;;;;7.40;99.90;;;;;;5038113;28;19916;-84
2022/11/05 07:13:31;;;;;;;;;;;7.50;99.90;;;;;;5038258;28;20390;-84
2022/11/05 07:15:56;;;;;;;;;;;7.50;99.90;;;;;;5037855;28;20410;-84
2022/11/05 07:18:22;;;;;;;;;;;7.50;99.90;;;;;;5055939;28;20442;-84
2022/11/05 07:20:48;;;;;;;;;;;7.60;99.90;;;;;;5056663;28;20333;-83
2022/11/05 07:23:13;;;;;;;;;;;7.60;99.90;;;;;;5042271;28;19963;-84
2022/11/05 07:25:40;;;;;;;;;;;7.70;99.90;;;;;;5042493;28;19912;-84
2022/11/05 07:28:06;;;;;;;;;;;7.70;99.90;;;;;;5042084;28;20384;-83
2022/11/05 07:30:32;;;;;;;;;;;7.80;99.90;;;;;;5043676;28;19948;-84
2022/11/05 07:32:58;;;;;;;;;;;7.80;99.90;;;;;;5060280;28;19913;-83
2022/11/05 07:35:24;;;;;;;;;;;7.90;99.90;;;;;;5041940;28;19991;-83
2022/11/05 07:37:50;;;;;;;;;;;8.00;99.90;;;;;;5042856;28;20375;-84
2022/11/05 07:40:18;;;;;;;;;;;8.10;99.90;;;;;;5041368;28;20332;-82
2022/11/05 07:42:48;;;;;;;;;;;8.20;99.90;;;;;;5042629;28;19984;-83
2022/11/05 07:45:14;;;;;;;;;;;8.30;99.90;;;;;;5041653;28;20376;-82
2022/11/05 07:47:45;;;;;;;;;;;8.30;99.90;;;;;;5041157;28;20004;-82
2022/11/05 07:50:11;;;;;;;;;;;8.40;99.90;;;;;;5041302;28;20374;-82
2022/11/05 07:52:36;;;;;;;;;;;8.40;99.90;;;;;;5040784;28;19909;-83
2022/11/05 07:55:02;;;;;;;;;;;8.40;99.90;;;;;;5059095;28;19916;-82
2022/11/05 07:57:27;;;;;;;;;;;8.50;99.90;;;;;;5040798;28;20370;-82
2022/11/05 07:59:53;;;;;;;;;;;8.60;99.90;;;;;;5058716;28;19920;-83
2022/11/05 08:02:18;;;;;;;;;;;8.70;99.90;;;;;;5059281;28;19913;-84
2022/11/05 08:04:44;;;;;;;;;;;8.80;99.90;;;;;;5059219;28;19909;-84
2022/11/05 08:07:09;;;;;;;;;;;8.90;99.90;;;;;;5040534;28;19923;-84
2022/11/05 08:09:35;;;;;;;;;;;9.00;99.90;;;;;;5040663;28;20008;-82
2022/11/05 08:12:00;;;;;;;;;;;9.10;99.90;;;;;;5059138;28;19913;-84
2022/11/05 08:14:26;;;;;;;;;;;9.20;99.90;;;;;;5041006;28;19909;-83
2022/11/05 08:16:51;;;;;;;;;;;9.30;99.90;;;;;;5039852;28;20353;-83
2022/11/05 08:19:17;;;;;;;;;;;9.40;99.90;;;;;;5040797;28;19913;-84
2022/11/05 08:21:42;;;;;;;;;;;9.50;99.90;;;;;;5040719;28;19955;-84
2022/11/05 08:24:08;;;;;;;;;;;9.60;99.90;;;;;;5058551;28;19909;-82
2022/11/05 08:26:33;;;;;;;;;;;9.70;99.90;;;;;;5040057;28;19908;-82
2022/11/05 08:28:59;;;;;;;;;;;9.70;99.90;;;;;;5058406;28;20334;-84
2022/11/05 08:31:25;;;;;;;;;;;9.80;99.90;;;;;;5058155;28;20285;-84
2022/11/05 08:33:50;;;;;;;;;;;10.00;99.90;;;;;;5057623;28;19915;-83
2022/11/05 08:36:16;;;;;;;;;;;10.00;99.90;;;;;;5057629;28;19909;-83
2022/11/05 08:38:42;;;;;;;;;;;10.10;99.90;;;;;;5058479;28;19955;-83
2022/11/05 08:41:07;;;;;;;;;;;10.10;99.90;;;;;;5039186;28;20433;-84
2022/11/05 08:43:32;;;;;;;;;;;10.20;99.90;;;;;;5057921;28;19908;-83
2022/11/05 08:45:59;;;;;;;;;;;10.30;99.90;;;;;;5056850;28;19909;-84
2022/11/05 08:48:24;;;;;;;;;;;10.40;99.90;;;;;;5039163;28;20008;-83
2022/11/05 08:50:50;;;;;;;;;;;10.50;99.90;;;;;;5058703;28;20357;-84
2022/11/05 08:53:15;;;;;;;;;;;10.60;99.90;;;;;;5039553;28;19909;-83
2022/11/05 08:55:42;;;;;;;;;;;10.60;99.90;;;;;;5056594;28;19909;-84
2022/11/05 08:58:14;;;;;;;;;;;10.70;99.90;;;;;;5039191;28;20307;-83
2022/11/05 09:00:40;;;;;;;;;;;10.70;99.90;;;;;;5058504;28;19924;-83
2022/11/05 09:03:06;;;;;;;;;;;10.80;99.90;;;;;;5058420;28;19909;-82
2022/11/05 09:05:38;;;;;;;;;;;10.80;99.90;;;;;;5039114;28;19909;-83
2022/11/05 09:08:05;;;;;;;;;;;10.90;99.90;;;;;;5057698;28;19917;-83
2022/11/05 09:10:30;;;;;;;;;;;11.00;99.90;;;;;;5057554;28;19909;-83
2022/11/05 09:12:56;;;;;;;;;;;11.00;99.90;;;;;;5038512;28;20058;-82
2022/11/05 09:15:22;;;;;;;;;;;11.00;99.90;;;;;;5038415;28;19940;-83
2022/11/05 09:17:47;;;;;;;;;;;11.10;99.90;;;;;;5060794;28;20364;-82
2022/11/05 09:20:13;;;;;;;;;;;11.10;99.90;;;;;;5063898;28;20011;-83
2022/11/05 09:22:38;;;;;;;;;;;11.10;99.90;;;;;;5046126;28;19923;-85
2022/11/05 09:25:04;;;;;;;;;;;11.20;99.90;;;;;;5047567;28;19916;-83
2022/11/05 09:27:30;;;;;;;;;;;11.30;99.90;;;;;;5046513;28;19909;-85
2022/11/05 09:29:56;;;;;;;;;;;11.20;99.90;;;;;;5045493;28;20003;-83
2022/11/05 09:32:22;;;;;;;;;;;11.20;99.90;;;;;;5045780;28;20441;-83
2022/11/05 09:34:48;;;;;;;;;;;11.30;99.90;;;;;;5043114;28;19908;-83
2022/11/05 09:37:14;;;;;;;;;;;11.40;99.90;;;;;;5057743;28;19909;-86
2022/11/05 09:39:40;;;;;;;;;;;11.50;99.90;;;;;;5038792;28;19979;-86
2022/11/05 09:42:10;;;;;;;;;;;11.50;99.90;;;;;;5038878;28;19913;-85
2022/11/05 09:44:46;;;;;;;;;;;11.60;99.90;;;;;;5037195;28;19909;-87
2022/11/05 09:47:24;;;;;;;;;;;11.70;99.90;;;;;;5036045;28;19912;-86
2022/11/05 09:49:52;;;;;;;;;;;11.80;99.90;;;;;;5038319;28;20314;-82
2022/11/05 09:52:19;;;;;;;;;;;11.80;99.90;;;;;;5037878;28;20352;-83
2022/11/05 09:54:46;;;;;;;;;;;11.80;99.90;;;;;;5040068;28;19908;-84
2022/11/05 09:57:14;;;;;;;;;;;11.90;99.90;;;;;;5039012;28;20334;-82
2022/11/05 09:59:51;;;;;;;;;;;12.00;99.90;;;;;;5058762;28;19958;-82
2022/11/05 10:02:21;;;;;;;;;;;12.00;99.90;;;;;;5038890;28;19944;-83
2022/11/05 10:04:48;;;;;;;;;;;12.00;99.90;;;;;;5040432;28;20180;-84
2022/11/05 10:07:16;;;;;;;;;;;12.10;99.90;;;;;;5041216;28;19917;-84
2022/11/05 10:09:45;;;;;;;;;;;12.20;99.90;;;;;;5040343;28;19996;-84
2022/11/05 10:12:21;;;;;;;;;;;12.30;99.90;;;;;;5064903;28;19940;-83
2022/11/05 10:14:48;;;;;;;;;;;12.40;99.90;;;;;;5041245;28;20007;-82
2022/11/05 10:17:21;;;;;;;;;;;12.50;99.90;;;;;;5060375;28;19958;-82
2022/11/05 10:19:54;;;;;;;;;;;12.60;99.90;;;;;;5059433;28;19959;-83
2022/11/05 10:22:20;;;;;;;;;;;12.80;99.90;;;;;;5059347;28;19931;-82
2022/11/05 10:24:47;;;;;;;;;;;12.80;99.90;;;;;;5043303;28;19909;-85
2022/11/05 10:27:22;;;;;;;;;;;12.80;99.90;;;;;;5058996;28;19916;-82
2022/11/05 10:29:48;;;;;;;;;;;12.80;99.90;;;;;;5039388;28;19999;-83
2022/11/05 10:32:18;;;;;;;;;;;12.80;99.90;;;;;;5059205;28;19954;-83
2022/11/05 10:34:43;;;;;;;;;;;13.00;99.90;;;;;;5039413;28;20443;-83
2022/11/05 10:37:09;;;;;;;;;;;13.30;99.90;;;;;;5040292;28;19920;-83
2022/11/05 10:39:35;;;;;;;;;;;13.70;99.90;;;;;;5039277;28;19913;-82
2022/11/05 10:42:19;;;;;;;;;;;13.90;99.90;;;;;;5044056;28;20011;-83
2022/11/05 10:44:50;;;;;;;;;;;14.00;99.90;;;;;;5055783;28;20368;-83
2022/11/05 10:47:35;;;;;;;;;;;14.20;99.90;;;;;;5037622;28;19909;-84
2022/11/05 10:50:02;;;;;;;;;;;14.70;99.90;;;;;;5035990;28;19956;-84
2022/11/05 10:52:31;;;;;;;;;;;14.80;99.90;;;;;;5036042;28;19909;-83
2022/11/05 10:54:59;;;;;;;;;;;14.80;99.90;;;;;;5053459;28;19981;-82
2022/11/05 10:57:35;;;;;;;;;;;15.00;99.90;;;;;;5039558;28;19909;-83
2022/11/05 11:00:16;;;;;;;;;;;15.90;99.90;;;;;;5040084;28;19913;-82
2022/11/05 11:02:50;;;;;;;;;;;18.00;99.90;;;;;;5040950;28;19909;-81
2022/11/05 11:05:42;;;;;;;;;;;20.10;99.90;;;;;;5038783;28;19915;-82
2022/11/05 11:08:07;;;;;;;;;;;21.20;99.90;;;;;;5053295;28;20340;-84
2022/11/05 11:10:40;;;;;;;;;;;23.30;99.90;;;;;;5061022;28;19948;-83
2022/11/05 11:13:16;;;;;;;;;;;24.40;94.10;;;;;;5058920;28;20299;-84
2022/11/05 11:15:42;;;;;;;;;;;25.30;87.20;;;;;;5041566;28;19909;-83
2022/11/05 11:18:22;;;;;;;;;;;25.80;81.50;;;;;;5060333;28;19939;-82
2022/11/05 11:20:48;;;;;;;;;;;27.20;76.20;;;;;;5057791;28;19931;-83
2022/11/05 11:23:14;;;;;;;;;;;28.80;66.60;;;;;;5044605;28;19909;-82
2022/11/05 11:25:59;;;;;;;;;;;29.50;60.50;;;;;;5038611;28;19912;-84
2022/11/05 11:28:50;;;;;;;;;;;30.10;55.50;;;;;;5033360;28;19952;-82
2022/11/05 11:31:19;;;;;;;;;;;29.60;54.40;;;;;;5019870;28;20050;-83
2022/11/05 11:33:46;;;;;;;;;;;28.40;53.30;;;;;;5021393;28;19909;-82
2022/11/05 11:36:12;;;;;;;;;;;27.30;53.90;;;;;;5045935;28;19913;-81
2022/11/05 11:38:38;;;;;;;;;;;26.70;54.60;;;;;;5040806;28;20296;-81
2022/11/05 11:41:10;;;;;;;;;;;27.20;55.90;;;;;;5058682;28;20372;-80
2022/11/05 11:43:37;;;;;;;;;;;26.90;54.30;;;;;;5041309;28;19909;-82
2022/11/05 11:46:04;;;;;;;;;;;25.90;55.80;;;;;;5041056;28;19913;-84
2022/11/05 11:48:32;;;;;;;;;;;24.40;56.20;;;;;;5060154;28;20028;-81
2022/11/05 11:50:58;;;;;;;;;;;23.00;58.60;;;;;;5038184;28;19956;-82
2022/11/05 11:53:26;;;;;;;;;;;22.50;61.80;;;;;;5046019;28;19940;-82
2022/11/05 11:55:54;;;;;;;;;;;21.80;62.00;;;;;;5022640;28;19909;-84
2022/11/05 11:58:20;;;;;;;;;;;20.70;64.20;;;;;;5020475;28;19917;-84
2022/11/05 12:00:48;;;;;;;;;;;20.00;69.10;;;;;;5039200;28;19988;-82
2022/11/05 12:03:20;;;;;;;;;;;19.50;73.60;;;;;;5035433;28;19913;-82
2022/11/05 12:05:52;;;;;;;;;;;19.20;81.10;;;;;;5054474;28;19912;-81
2022/11/05 12:08:30;;;;;;;;;;;18.70;83.20;;;;;;5056387;28;19917;-81
2022/11/05 12:11:09;;;;;;;;;;;18.20;89.50;;;;;;5034002;28;19920;-80
2022/11/05 12:13:54;;;;;;;;;;;17.90;91.70;;;;;;5040386;28;19917;-81
2022/11/05 12:16:22;;;;;;;;;;;17.70;94.40;;;;;;5036649;28;19996;-81
2022/11/05 12:18:53;;;;;;;;;;;17.30;96.40;;;;;;5036564;28;19909;-80
2022/11/05 12:21:30;;;;;;;;;;;16.80;98.80;;;;;;5038368;28;20007;-80
2022/11/05 12:24:08;;;;;;;;;;;16.50;99.90;;;;;;5035801;28;19924;-80
2022/11/05 12:26:42;;;;;;;;;;;16.30;99.90;;;;;;5039415;28;19909;-79
2022/11/05 12:29:18;;;;;;;;;;;16.20;99.90;;;;;;5038676;28;19909;-79
2022/11/05 12:31:59;;;;;;;;;;;16.00;99.90;;;;;;5038957;28;19999;-79
2022/11/05 12:34:34;;;;;;;;;;;16.30;99.90;;;;;;5038914;28;19909;-79
2022/11/05 12:37:18;;;;;;;;;;;16.30;99.90;;;;;;5037400;28;19941;-78
2022/11/05 12:39:49;;;;;;;;;;;16.20;99.90;;;;;;5038124;28;20329;-79
2022/11/05 12:42:30;;;;;;;;;;;16.10;99.90;;;;;;5038864;28;19910;-79
2022/11/05 12:44:56;;;;;;;;;;;15.90;99.90;;;;;;5039243;28;19909;-79
2022/11/05 12:47:45;;;;;;;;;;;16.00;99.90;;;;;;5038400;28;20341;-79
2022/11/05 12:50:17;;;;;;;;;;;16.00;99.90;;;;;;5039104;28;19933;-80
2022/11/05 12:53:10;;;;;;;;;;;16.10;99.90;;;;;;5036956;28;19924;-79
2022/11/05 12:55:37;;;;;;;;;;;16.20;99.90;;;;;;5018411;28;20277;-78
2022/11/05 12:58:14;;;;;;;;;;;16.20;99.90;;;;;;5036468;28;20369;-79
2022/11/05 13:00:43;;;;;;;;;;;16.20;99.90;;;;;;5036620;28;19921;-79
2022/11/05 13:03:08;;;;;;;;;;;16.00;99.90;;;;;;5035977;28;19909;-79
2022/11/05 13:05:34;;;;;;;;;;;16.00;99.90;;;;;;5037640;28;20011;-79
2022/11/05 13:08:02;;;;;;;;;;;15.90;99.90;;;;;;5036477;28;19917;-79
2022/11/05 13:10:35;;;;;;;;;;;15.80;99.90;;;;;;5036264;28;19916;-79
2022/11/05 13:13:05;;;;;;;;;;;15.70;99.90;;;;;;5035455;28;19916;-78
2022/11/05 13:15:37;;;;;;;;;;;15.50;99.90;;;;;;5036967;28;20341;-79
2022/11/05 13:18:05;;;;;;;;;;;15.50;99.90;;;;;;5037819;28;19909;-79
2022/11/05 13:20:32;;;;;;;;;;;15.60;99.90;;;;;;5036484;28;19968;-79
2022/11/05 13:23:00;;;;;;;;;;;15.70;99.90;;;;;;5037431;28;19909;-79
2022/11/05 13:25:27;;;;;;;;;;;15.60;99.90;;;;;;5034521;28;20412;-79
2022/11/05 13:28:11;;;;;;;;;;;15.50;99.90;;;;;;5036494;28;19916;-79
2022/11/05 13:30:41;;;;;;;;;;;15.40;99.90;;;;;;5035716;28;20547;-79
2022/11/05 13:33:11;;;;;;;;;;;15.60;99.90;;;;;;5035605;28;19910;-78
2022/11/05 13:35:42;;;;;;;;;;;15.50;99.90;;;;;;5035298;28;19909;-78
2022/11/05 13:41:11;;;;;;;;;;;15.30;99.90;;;;;;5034309;28;19920;-79
2022/11/05 13:43:43;;;;;;;;;;;15.50;99.90;;;;;;5035132;28;19909;-85
2022/11/05 13:46:28;;;;;;;;;;;15.40;99.90;;;;;;5034414;28;20408;-84
2022/11/05 13:49:09;;;;;;;;;;;15.40;99.90;;;;;;5034714;28;19918;-86
2022/11/05 13:51:34;;;;;;;;;;;15.10;99.90;;;;;;5035085;28;19916;-79
2022/11/05 13:54:18;;;;;;;;;;;15.10;99.90;;;;;;5033387;28;20300;-79
2022/11/05 13:56:57;;;;;;;;;;;15.10;99.90;;;;;;5034251;28;19909;-79
2022/11/05 13:59:26;;;;;;;;;;;15.00;99.90;;;;;;5035381;28;19966;-82
2022/11/05 14:02:03;;;;;;;;;;;14.90;99.90;;;;;;5034946;28;19909;-80
2022/11/05 14:04:28;;;;;;;;;;;14.90;99.90;;;;;;5032995;28;19909;-79
2022/11/05 14:07:03;;;;;;;;;;;14.80;99.90;;;;;;5034354;28;19980;-80
2022/11/05 14:09:29;;;;;;;;;;;14.70;99.90;;;;;;5033825;28;20291;-79
2022/11/05 14:11:57;;;;;;;;;;;14.70;99.90;;;;;;5035040;28;20000;-79
2022/11/05 14:14:27;;;;;;;;;;;14.60;99.90;;;;;;5034370;28;19916;-80
2022/11/05 14:16:53;;;;;;;;;;;14.50;99.90;;;;;;5033908;28;19925;-79
2022/11/05 14:19:19;;;;;;;;;;;14.40;99.90;;;;;;5034484;28;19917;-79
2022/11/05 14:21:50;;;;;;;;;;;14.30;99.90;;;;;;5034611;28;19976;-80
2022/11/05 14:24:21;;;;;;;;;;;14.30;99.90;;;;;;5034684;28;19955;-80
2022/11/05 14:26:59;;;;;;;;;;;14.30;99.90;;;;;;5033979;28;20016;-80
2022/11/05 14:29:35;;;;;;;;;;;14.20;99.90;;;;;;5033609;28;20308;-80
2022/11/05 14:32:23;;;;;;;;;;;14.20;99.90;;;;;;5034599;28;19936;-81
2022/11/05 14:34:51;;;;;;;;;;;14.20;99.90;;;;;;5033262;28;19915;-79
2022/11/05 14:37:22;;;;;;;;;;;14.10;99.90;;;;;;5034134;28;19909;-79
2022/11/05 14:39:48;;;;;;;;;;;14.10;99.90;;;;;;5034649;28;19913;-80
2022/11/05 14:42:13;;;;;;;;;;;14.00;99.90;;;;;;5034466;28;20036;-79
2022/11/05 14:44:59;;;;;;;;;;;14.00;99.90;;;;;;5034548;28;19909;-80
2022/11/05 14:47:26;;;;;;;;;;;13.90;99.90;;;;;;5033823;28;19909;-79
2022/11/05 14:50:07;;;;;;;;;;;13.80;99.90;;;;;;5034261;28;19932;-80
2022/11/05 14:52:33;;;;;;;;;;;13.70;99.90;;;;;;5033071;28;19982;-80
2022/11/05 14:54:58;;;;;;;;;;;13.70;99.90;;;;;;5034342;28;19913;-81
2022/11/05 14:57:59;;;;;;;;;;;13.60;99.90;;;;;;5033276;28;19909;-80
2022/11/05 15:00:27;;;;;;;;;;;13.60;99.90;;;;;;5035312;28;19959;-79
2022/11/05 15:02:56;;;;;;;;;;;13.60;99.90;;;;;;5032762;28;20327;-79
2022/11/05 15:05:34;;;;;;;;;;;13.60;99.90;;;;;;5034838;28;20458;-80
2022/11/05 15:08:20;;;;;;;;;;;13.50;99.90;;;;;;5040672;28;20350;-82
2022/11/05 15:10:46;;;;;;;;;;;13.40;99.90;;;;;;5054322;28;19991;-82
2022/11/05 15:13:20;;;;;;;;;;;13.40;99.90;;;;;;5055507;28;19934;-82